Time;durP1;ratioP1;P1;durP2;ratioP2;P2;SDS_P1;SDS_P2;PMS_P1;PMS_P2;Temp;Humidity;BMP_temperature;BMP_pressure;BME280_temperature;BME280_humidity;BME280_pressure;Samples;Min_cycle;Max_cycle;Signal;HPM_P1;HPM_P2
2021/07/17 00:01:08;;;;;;;5.20;4.17;;;16.90;99.90;;;;;;5028194;28;20177;-78
2021/07/17 00:03:35;;;;;;;4.17;3.63;;;16.90;99.90;;;;;;5027327;28;20191;-77
2021/07/17 00:06:01;;;;;;;4.20;3.80;;;16.90;99.90;;;;;;5025334;28;20180;-79
2021/07/17 00:08:26;;;;;;;3.87;3.67;;;16.90;99.90;;;;;;5024037;28;20204;-78
2021/07/17 00:10:52;;;;;;;5.73;3.80;;;16.90;99.90;;;;;;5022666;28;20186;-78
2021/07/17 00:13:20;;;;;;;4.93;3.67;;;17.00;99.90;;;;;;5027593;28;20236;-77
2021/07/17 00:15:47;;;;;;;4.27;3.87;;;17.00;99.90;;;;;;5051610;28;20588;-77
2021/07/17 00:18:15;;;;;;;4.90;4.53;;;16.90;99.90;;;;;;5039699;28;20195;-78
2021/07/17 00:20:41;;;;;;;4.83;4.37;;;16.90;99.90;;;;;;5043351;28;20260;-77
2021/07/17 00:23:07;;;;;;;4.60;4.20;;;16.90;99.90;;;;;;5023778;28;20176;-77
2021/07/17 00:25:33;;;;;;;4.33;3.97;;;16.90;99.90;;;;;;5041633;28;20179;-77
2021/07/17 00:27:59;;;;;;;4.50;4.20;;;16.90;99.90;;;;;;5023170;28;20250;-78
2021/07/17 00:30:25;;;;;;;6.33;4.03;;;16.90;99.90;;;;;;5024174;28;20580;-78
2021/07/17 00:32:51;;;;;;;4.80;4.40;;;16.90;99.90;;;;;;5041747;28;20210;-79
2021/07/17 00:35:17;;;;;;;4.67;4.13;;;16.90;99.90;;;;;;5038874;28;20252;-78
2021/07/17 00:37:43;;;;;;;4.60;4.13;;;16.80;99.90;;;;;;5020908;28;20204;-79
2021/07/17 00:40:11;;;;;;;4.33;3.90;;;16.80;99.90;;;;;;5021117;28;20192;-79
2021/07/17 00:42:43;;;;;;;3.77;3.57;;;16.80;99.90;;;;;;5038953;28;20175;-78
2021/07/17 00:45:11;;;;;;;4.27;3.97;;;16.80;99.90;;;;;;5038960;28;20649;-78
2021/07/17 00:47:39;;;;;;;6.53;4.07;;;16.80;99.90;;;;;;5021320;28;20215;-78
2021/07/17 00:50:10;;;;;;;4.27;3.97;;;16.80;99.90;;;;;;5038741;28;20190;-78
2021/07/17 00:52:36;;;;;;;4.53;4.23;;;16.80;99.90;;;;;;5038772;28;20632;-77
2021/07/17 00:55:04;;;;;;;4.03;3.63;;;16.70;99.90;;;;;;5019850;28;20260;-78
2021/07/17 00:57:34;;;;;;;4.07;3.63;;;16.60;99.90;;;;;;5039256;28;20207;-78
2021/07/17 01:00:04;;;;;;;4.83;4.43;;;16.60;99.90;;;;;;5021955;28;20200;-77
2021/07/17 01:02:34;;;;;;;5.07;4.67;;;16.60;99.90;;;;;;5039801;28;20190;-77
2021/07/17 01:05:00;;;;;;;5.47;4.03;;;16.60;99.90;;;;;;5040814;28;20188;-77
2021/07/17 01:07:26;;;;;;;4.50;4.20;;;16.60;99.90;;;;;;5041510;28;20204;-78
2021/07/17 01:09:52;;;;;;;7.77;4.30;;;16.60;99.90;;;;;;5040947;28;20243;-78
2021/07/17 01:12:19;;;;;;;4.33;3.93;;;16.60;99.90;;;;;;5040313;28;20668;-77
2021/07/17 01:14:45;;;;;;;5.10;4.60;;;16.50;99.90;;;;;;5039341;28;20185;-78
2021/07/17 01:17:12;;;;;;;4.50;4.20;;;16.50;99.90;;;;;;5023688;28;20229;-77
2021/07/17 01:19:38;;;;;;;5.17;4.57;;;16.50;99.90;;;;;;5020849;28;20187;-79
2021/07/17 01:22:04;;;;;;;5.70;5.20;;;16.40;99.90;;;;;;5038818;28;20186;-77
2021/07/17 01:24:29;;;;;;;13.00;4.70;;;16.40;99.90;;;;;;5038615;28;20207;-77
2021/07/17 01:26:55;;;;;;;5.90;4.63;;;16.50;99.90;;;;;;5022105;28;20209;-77
2021/07/17 01:29:21;;;;;;;4.90;4.57;;;16.50;99.90;;;;;;5039233;28;20192;-77
2021/07/17 01:31:47;;;;;;;5.00;4.57;;;16.60;99.90;;;;;;5021346;28;20268;-78
2021/07/17 01:34:13;;;;;;;7.40;5.37;;;16.50;99.90;;;;;;5020906;28;20216;-78
2021/07/17 01:36:40;;;;;;;5.40;4.90;;;16.50;99.90;;;;;;5021522;28;20200;-78
2021/07/17 01:39:06;;;;;;;5.57;5.10;;;16.50;99.90;;;;;;5037820;28;20171;-78
2021/07/17 01:41:33;;;;;;;4.60;4.30;;;16.50;99.90;;;;;;5038325;28;20730;-78
2021/07/17 01:43:58;;;;;;;5.60;5.00;;;16.50;99.90;;;;;;5037997;28;20548;-77
2021/07/17 01:46:26;;;;;;;5.10;4.70;;;16.50;99.90;;;;;;5021471;28;20194;-78
2021/07/17 01:48:54;;;;;;;5.07;4.67;;;16.40;99.90;;;;;;5039108;28;20172;-79
2021/07/17 01:51:20;;;;;;;5.87;4.67;;;16.40;99.90;;;;;;5038699;28;20231;-77
2021/07/17 01:53:47;;;;;;;5.53;5.00;;;16.40;99.90;;;;;;5037658;28;20190;-79
2021/07/17 01:56:16;;;;;;;7.07;5.20;;;16.40;99.90;;;;;;5037304;28;20227;-79
2021/07/17 01:58:42;;;;;;;6.87;5.40;;;16.30;99.90;;;;;;5037137;28;20182;-78
2021/07/17 02:01:09;;;;;;;7.10;5.33;;;16.30;99.90;;;;;;5037390;28;20181;-78
2021/07/17 02:03:36;;;;;;;5.37;4.83;;;16.30;99.90;;;;;;5020227;28;20204;-77
2021/07/17 02:06:03;;;;;;;6.27;5.63;;;16.20;99.90;;;;;;5038586;28;20175;-79
2021/07/17 02:08:29;;;;;;;7.10;6.40;;;16.10;99.90;;;;;;5039076;28;20174;-78
2021/07/17 02:10:54;;;;;;;6.53;5.93;;;16.10;99.90;;;;;;5036692;28;20178;-79
2021/07/17 02:13:20;;;;;;;6.67;6.07;;;16.10;99.90;;;;;;5037678;28;20211;-78
2021/07/17 02:15:50;;;;;;;6.80;6.10;;;16.10;99.90;;;;;;5037849;28;20178;-78
2021/07/17 02:18:32;;;;;;;7.47;6.87;;;16.10;99.90;;;;;;5031434;28;20210;-79
2021/07/17 02:21:06;;;;;;;7.17;6.57;;;16.10;99.90;;;;;;5032585;28;20178;-79
2021/07/17 02:23:32;;;;;;;7.33;6.73;;;16.10;99.90;;;;;;5047220;28;20223;-79
2021/07/17 02:25:58;;;;;;;6.90;6.40;;;16.20;99.90;;;;;;5035263;28;20534;-79
2021/07/17 02:28:24;;;;;;;6.80;6.07;;;16.20;99.90;;;;;;5034032;28;20261;-79
2021/07/17 02:30:51;;;;;;;6.97;6.40;;;16.20;99.90;;;;;;5036528;28;20178;-78
2021/07/17 02:33:17;;;;;;;8.30;7.27;;;16.20;99.90;;;;;;5037824;28;20181;-78
2021/07/17 02:35:43;;;;;;;6.50;6.00;;;16.20;99.90;;;;;;5017961;28;20180;-78
2021/07/17 02:38:09;;;;;;;7.07;6.40;;;16.20;99.90;;;;;;5035340;28;20206;-78
2021/07/17 02:40:35;;;;;;;6.73;6.20;;;16.20;99.90;;;;;;5017852;28;20672;-79
2021/07/17 02:43:01;;;;;;;7.50;6.40;;;16.20;99.90;;;;;;5018891;28;20217;-77
2021/07/17 02:45:27;;;;;;;6.53;5.93;;;16.10;99.90;;;;;;5019984;28;20180;-78
2021/07/17 02:47:52;;;;;;;6.23;5.63;;;16.10;99.90;;;;;;5017757;28;20205;-78
2021/07/17 02:50:19;;;;;;;6.67;6.07;;;16.10;99.90;;;;;;5036144;28;20201;-76
2021/07/17 02:52:44;;;;;;;7.30;6.60;;;16.10;99.90;;;;;;5018802;28;20206;-78
2021/07/17 02:55:11;;;;;;;8.37;6.33;;;16.10;99.90;;;;;;5019553;28;20668;-78
2021/07/17 02:57:36;;;;;;;7.77;7.07;;;16.20;99.90;;;;;;5018034;28;20216;-79
2021/07/17 03:00:06;;;;;;;8.00;7.30;;;16.10;99.90;;;;;;5033758;28;20185;-78
2021/07/17 03:02:31;;;;;;;8.37;6.80;;;16.20;99.90;;;;;;5022338;28;20178;-77
2021/07/17 03:04:57;;;;;;;8.67;6.87;;;16.20;99.90;;;;;;5037313;28;20202;-78
2021/07/17 03:07:23;;;;;;;7.20;6.50;;;16.10;99.90;;;;;;5015985;28;20202;-78
2021/07/17 03:09:48;;;;;;;7.33;6.73;;;16.10;99.90;;;;;;5039226;28;20194;-76
2021/07/17 03:12:14;;;;;;;6.93;6.23;;;16.20;99.90;;;;;;5037773;28;20209;-78
2021/07/17 03:14:39;;;;;;;7.90;7.23;;;16.10;99.90;;;;;;5020368;28;20286;-78
2021/07/17 03:17:05;;;;;;;8.53;7.23;;;16.10;99.90;;;;;;5021152;28;20221;-78
2021/07/17 03:19:46;;;;;;;8.27;7.57;;;16.10;99.90;;;;;;5022076;28;20194;-78
2021/07/17 03:22:12;;;;;;;8.93;7.37;;;16.20;99.90;;;;;;5020219;28;20186;-76
2021/07/17 03:24:38;;;;;;;8.37;7.67;;;16.20;99.90;;;;;;5020049;28;20620;-78
2021/07/17 03:27:04;;;;;;;8.27;7.53;;;16.20;99.90;;;;;;5019183;28;20198;-78
2021/07/17 03:29:29;;;;;;;10.03;7.33;;;16.20;99.90;;;;;;5035108;28;20278;-77
2021/07/17 03:31:55;;;;;;;9.47;7.13;;;16.30;99.90;;;;;;5035636;28;20290;-78
2021/07/17 03:34:21;;;;;;;7.97;7.20;;;16.30;99.90;;;;;;5017965;28;20206;-76
2021/07/17 03:36:46;;;;;;;7.50;6.70;;;16.20;99.90;;;;;;5016082;28;20214;-77
2021/07/17 03:39:13;;;;;;;8.10;7.40;;;16.20;99.90;;;;;;5034879;28;20175;-78
2021/07/17 03:41:39;;;;;;;8.13;7.63;;;16.10;99.90;;;;;;5016338;28;20224;-77
2021/07/17 03:44:06;;;;;;;8.97;8.10;;;16.20;99.90;;;;;;5016886;28;20637;-77
2021/07/17 03:46:32;;;;;;;8.97;8.13;;;16.30;99.90;;;;;;5034372;28;20234;-77
2021/07/17 03:48:58;;;;;;;9.10;7.93;;;16.30;99.90;;;;;;5034915;28;20187;-77
2021/07/17 03:51:23;;;;;;;8.93;8.23;;;16.30;99.90;;;;;;5016683;28;20202;-77
2021/07/17 03:53:49;;;;;;;8.03;7.43;;;16.30;99.90;;;;;;5034838;28;20190;-76
2021/07/17 03:56:15;;;;;;;8.83;8.00;;;16.30;99.90;;;;;;5016139;28;20634;-77
2021/07/17 03:58:40;;;;;;;8.67;8.07;;;16.30;99.90;;;;;;5016428;28;20189;-77
2021/07/17 04:01:06;;;;;;;8.33;7.47;;;16.30;99.90;;;;;;5030353;28;20181;-78
2021/07/17 04:03:33;;;;;;;8.63;7.37;;;16.20;99.90;;;;;;5004988;28;20210;-77
2021/07/17 04:05:59;;;;;;;8.47;7.57;;;16.30;99.90;;;;;;5033734;28;20182;-76
2021/07/17 04:08:24;;;;;;;7.97;7.17;;;16.30;99.90;;;;;;5035579;28;20229;-77
2021/07/17 04:10:50;;;;;;;8.43;7.77;;;16.20;99.90;;;;;;5036505;28;20174;-77
2021/07/17 04:13:16;;;;;;;9.47;8.30;;;16.20;99.90;;;;;;5019594;28;20174;-76
2021/07/17 04:15:41;;;;;;;11.20;8.97;;;16.10;99.90;;;;;;5018725;28;20182;-76
2021/07/17 04:18:07;;;;;;;10.80;9.80;;;16.10;99.90;;;;;;5037224;28;20206;-77
2021/07/17 04:20:33;;;;;;;9.13;8.33;;;16.20;99.90;;;;;;5036843;28;20213;-77
2021/07/17 04:22:59;;;;;;;8.50;7.80;;;16.20;99.90;;;;;;5038872;28;20672;-77
2021/07/17 04:25:25;;;;;;;8.50;7.20;;;16.20;99.90;;;;;;5018749;28;20183;-77
2021/07/17 04:27:50;;;;;;;8.57;7.87;;;16.20;99.90;;;;;;5038998;28;20583;-76
2021/07/17 04:30:16;;;;;;;8.93;8.27;;;16.20;99.90;;;;;;5038607;28;20187;-77
2021/07/17 04:32:42;;;;;;;9.40;8.63;;;16.20;99.90;;;;;;5020778;28;20202;-76
2021/07/17 04:35:08;;;;;;;10.03;8.87;;;16.10;99.90;;;;;;5021726;28;20229;-77
2021/07/17 04:37:34;;;;;;;11.33;10.33;;;16.10;99.90;;;;;;5021542;28;20203;-76
2021/07/17 04:40:00;;;;;;;12.03;10.13;;;16.10;99.90;;;;;;5037849;28;20179;-78
2021/07/17 04:42:29;;;;;;;11.20;10.30;;;16.10;99.90;;;;;;5026004;28;20225;-77
2021/07/17 04:44:54;;;;;;;10.63;9.63;;;16.20;99.90;;;;;;5037619;28;20171;-78
2021/07/17 04:47:20;;;;;;;12.50;11.20;;;16.10;99.90;;;;;;5040822;28;20198;-77
2021/07/17 04:49:46;;;;;;;11.77;10.63;;;16.10;99.90;;;;;;5037356;28;20251;-78
2021/07/17 04:52:12;;;;;;;11.80;10.73;;;16.10;99.90;;;;;;5035858;28;20665;-78
2021/07/17 04:54:37;;;;;;;11.80;10.70;;;16.20;99.90;;;;;;5039438;28;20178;-79
2021/07/17 04:57:03;;;;;;;11.30;10.30;;;16.30;99.90;;;;;;5036729;28;20213;-76
2021/07/17 04:59:29;;;;;;;10.70;9.80;;;16.30;99.90;;;;;;5036031;28;20639;-77
2021/07/17 05:01:55;;;;;;;11.83;10.90;;;16.30;99.90;;;;;;5018777;28;20185;-76
2021/07/17 05:04:20;;;;;;;13.50;10.63;;;16.40;99.90;;;;;;5036992;28;20237;-76
2021/07/17 05:06:46;;;;;;;12.03;10.70;;;16.40;99.90;;;;;;5037409;28;20193;-77
2021/07/17 05:09:11;;;;;;;11.33;10.43;;;16.40;99.90;;;;;;5019700;28;20551;-76
2021/07/17 05:11:39;;;;;;;12.40;11.40;;;16.30;99.90;;;;;;5018769;28;20671;-76
2021/07/17 05:14:04;;;;;;;12.50;11.30;;;16.40;99.90;;;;;;5036376;28;20190;-76
2021/07/17 05:16:30;;;;;;;12.70;11.00;;;16.40;99.90;;;;;;5035411;28;20198;-77
2021/07/17 05:18:56;;;;;;;14.93;12.70;;;16.40;99.90;;;;;;5036162;28;20181;-76
2021/07/17 05:21:22;;;;;;;13.63;12.33;;;16.50;99.90;;;;;;5017921;28;20196;-76
2021/07/17 05:23:47;;;;;;;12.63;11.43;;;16.50;99.90;;;;;;5017918;28;20186;-76
2021/07/17 05:26:13;;;;;;;12.47;11.33;;;16.50;99.90;;;;;;5037564;28;20262;-76
2021/07/17 05:28:39;;;;;;;12.83;11.90;;;16.50;99.90;;;;;;5038546;28;20183;-78
2021/07/17 05:31:04;;;;;;;13.17;12.00;;;16.50;99.90;;;;;;5018770;28;20639;-76
2021/07/17 05:33:30;;;;;;;14.40;13.20;;;16.60;99.90;;;;;;5036502;28;20192;-77
2021/07/17 05:35:55;;;;;;;11.87;10.63;;;16.60;99.90;;;;;;5036511;28;20181;-77
2021/07/17 05:38:21;;;;;;;12.17;11.07;;;16.70;99.90;;;;;;5036281;28;20222;-77
2021/07/17 05:40:47;;;;;;;12.97;11.73;;;16.70;99.90;;;;;;5036492;28;20608;-76
2021/07/17 05:43:13;;;;;;;12.60;10.97;;;16.80;99.90;;;;;;5016817;28;20246;-77
2021/07/17 05:45:39;;;;;;;11.50;10.60;;;16.80;99.90;;;;;;5035279;28;20233;-76
2021/07/17 05:48:05;;;;;;;12.50;11.40;;;16.90;99.90;;;;;;5017661;28;20193;-76
2021/07/17 05:50:31;;;;;;;12.00;11.00;;;16.90;99.90;;;;;;5017932;28;20178;-76
2021/07/17 05:52:57;;;;;;;11.83;10.70;;;16.90;99.90;;;;;;5017600;28;20194;-76
2021/07/17 05:55:23;;;;;;;12.57;11.07;;;16.90;99.90;;;;;;5036514;28;20262;-77
2021/07/17 05:57:48;;;;;;;11.10;10.20;;;16.90;99.90;;;;;;5034877;28;20225;-76
2021/07/17 06:00:19;;;;;;;12.27;11.07;;;16.90;99.90;;;;;;5034793;28;20495;-77
2021/07/17 06:02:48;;;;;;;11.53;10.53;;;16.90;99.90;;;;;;5035247;28;20173;-76
2021/07/17 06:05:13;;;;;;;12.70;11.57;;;16.90;99.90;;;;;;5034432;28;20192;-76
2021/07/17 06:07:39;;;;;;;11.50;10.40;;;16.90;99.90;;;;;;5035032;28;20201;-77
2021/07/17 06:10:05;;;;;;;12.03;11.03;;;16.90;99.90;;;;;;5035391;28;20181;-76
2021/07/17 06:12:31;;;;;;;11.17;10.07;;;16.90;99.90;;;;;;5019081;28;20209;-76
2021/07/17 06:14:57;;;;;;;12.63;11.43;;;16.90;99.90;;;;;;5035667;28;20175;-76
2021/07/17 06:17:23;;;;;;;12.07;11.07;;;16.90;99.90;;;;;;5034738;28;20223;-76
2021/07/17 06:19:49;;;;;;;10.53;9.63;;;17.00;99.90;;;;;;5016586;28;20269;-77
2021/07/17 06:22:15;;;;;;;11.70;10.50;;;17.00;99.90;;;;;;5034335;28;20261;-76
2021/07/17 06:24:41;;;;;;;11.43;10.43;;;17.10;99.90;;;;;;5032772;28;20186;-77
2021/07/17 06:27:07;;;;;;;11.57;10.57;;;17.20;99.90;;;;;;5015848;28;20206;-77
2021/07/17 06:29:36;;;;;;;11.40;10.40;;;17.30;99.90;;;;;;5033632;28;20182;-76
2021/07/17 06:32:03;;;;;;;10.40;9.60;;;17.30;99.90;;;;;;5030741;28;20272;-77
2021/07/17 06:34:29;;;;;;;9.53;8.63;;;17.40;99.90;;;;;;5034521;28;20231;-77
2021/07/17 06:36:55;;;;;;;9.10;8.40;;;17.40;99.90;;;;;;5017923;28;20681;-77
2021/07/17 06:39:20;;;;;;;9.50;8.70;;;17.40;99.90;;;;;;5034291;28;20193;-78
2021/07/17 06:41:46;;;;;;;10.53;9.63;;;17.50;99.90;;;;;;5015143;28;20273;-78
2021/07/17 06:44:12;;;;;;;10.57;9.77;;;17.50;99.90;;;;;;5015944;28;20267;-76
2021/07/17 06:46:38;;;;;;;10.67;9.63;;;17.60;99.90;;;;;;5036133;28;20210;-76
2021/07/17 06:49:04;;;;;;;10.57;9.73;;;17.70;99.90;;;;;;5034140;28;20643;-78
2021/07/17 06:51:31;;;;;;;10.40;9.60;;;17.80;99.90;;;;;;5034006;28;20207;-76
2021/07/17 06:53:57;;;;;;;10.33;9.53;;;17.90;99.90;;;;;;5012667;28;20531;-78
2021/07/17 06:56:23;;;;;;;9.90;9.10;;;17.90;99.90;;;;;;5034639;28;20245;-78
2021/07/17 06:58:49;;;;;;;9.50;8.70;;;17.90;99.90;;;;;;5036608;28;20249;-77
2021/07/17 07:01:16;;;;;;;10.07;9.13;;;17.90;99.90;;;;;;5036138;28;20186;-78
2021/07/17 07:03:42;;;;;;;9.20;8.60;;;18.00;99.90;;;;;;5036594;28;20187;-77
2021/07/17 07:06:08;;;;;;;8.80;8.13;;;18.00;99.90;;;;;;5035496;28;20714;-77
2021/07/17 07:08:34;;;;;;;9.43;8.57;;;18.10;99.90;;;;;;5018977;28;20188;-77
2021/07/17 07:11:00;;;;;;;9.07;8.23;;;18.20;99.90;;;;;;5019974;28;20187;-77
2021/07/17 07:13:26;;;;;;;7.87;7.20;;;18.20;99.90;;;;;;5037251;28;20631;-77
2021/07/17 07:15:52;;;;;;;7.57;6.97;;;18.20;99.90;;;;;;5036297;28;20730;-77
2021/07/17 07:18:17;;;;;;;7.90;7.33;;;18.30;99.90;;;;;;5037213;28;20285;-77
2021/07/17 07:20:43;;;;;;;7.03;6.43;;;18.40;99.90;;;;;;5021305;28;20176;-77
2021/07/17 07:23:09;;;;;;;6.17;5.70;;;18.40;99.90;;;;;;5019596;28;20247;-77
2021/07/17 07:25:34;;;;;;;7.00;6.40;;;18.40;99.90;;;;;;5036107;28;20181;-77
2021/07/17 07:28:00;;;;;;;6.63;6.23;;;18.40;99.90;;;;;;5036707;28;20261;-77
2021/07/17 07:30:26;;;;;;;7.77;7.07;;;18.50;99.90;;;;;;5037198;28;20728;-77
2021/07/17 07:32:52;;;;;;;6.60;6.20;;;18.50;99.90;;;;;;5019983;28;20200;-76
2021/07/17 07:35:19;;;;;;;6.97;6.37;;;18.50;99.90;;;;;;5038639;28;20243;-77
2021/07/17 07:37:45;;;;;;;6.00;5.60;;;18.50;99.90;;;;;;5023692;28;20204;-77
2021/07/17 07:40:13;;;;;;;6.07;5.67;;;18.50;99.90;;;;;;5042240;28;20186;-77
2021/07/17 07:42:39;;;;;;;7.10;6.33;;;18.50;99.90;;;;;;5041334;28;20189;-77
2021/07/17 07:45:05;;;;;;;6.17;5.77;;;18.50;99.90;;;;;;5024934;28;20639;-77
2021/07/17 07:47:30;;;;;;;6.23;5.83;;;18.60;99.90;;;;;;5041026;28;20752;-78
2021/07/17 07:49:57;;;;;;;7.03;6.43;;;18.60;99.90;;;;;;5041689;28;20181;-77
2021/07/17 07:52:23;;;;;;;6.07;5.67;;;18.60;99.90;;;;;;5022914;28;20750;-77
2021/07/17 07:54:50;;;;;;;6.37;5.90;;;18.60;99.90;;;;;;5021857;28;20693;-77
2021/07/17 07:57:15;;;;;;;5.77;5.37;;;18.60;99.90;;;;;;5039530;28;20216;-76
2021/07/17 07:59:41;;;;;;;6.10;5.60;;;18.60;99.90;;;;;;5015902;28;20178;-78
2021/07/17 08:02:08;;;;;;;5.23;4.83;;;18.60;99.90;;;;;;5038507;28;20184;-78
2021/07/17 08:04:33;;;;;;;6.00;5.60;;;18.60;99.90;;;;;;5019701;28;20185;-78
2021/07/17 08:06:59;;;;;;;6.17;5.70;;;18.60;99.90;;;;;;5037617;28;20205;-75
2021/07/17 08:09:25;;;;;;;6.80;6.30;;;18.60;99.90;;;;;;5038940;28;20661;-75
2021/07/17 08:11:51;;;;;;;5.50;5.10;;;18.60;99.90;;;;;;5039786;28;20271;-76
2021/07/17 08:14:17;;;;;;;5.50;5.10;;;18.60;99.90;;;;;;5021059;28;20235;-76
2021/07/17 08:16:43;;;;;;;6.50;6.00;;;18.60;99.90;;;;;;5019820;28;20201;-76
2021/07/17 08:19:08;;;;;;;6.23;5.83;;;18.60;99.90;;;;;;5021459;28;20183;-76
2021/07/17 08:21:34;;;;;;;5.87;5.30;;;18.60;99.90;;;;;;5038580;28;20531;-78
2021/07/17 08:24:00;;;;;;;5.20;4.90;;;18.60;99.90;;;;;;5038887;28;20203;-77
2021/07/17 08:26:26;;;;;;;5.53;5.13;;;18.60;99.90;;;;;;5037370;28;20661;-77
2021/07/17 08:28:51;;;;;;;7.27;5.57;;;18.60;99.90;;;;;;5039625;28;20201;-77
2021/07/17 08:31:17;;;;;;;5.70;5.30;;;18.60;99.90;;;;;;5025015;28;20262;-77
2021/07/17 08:33:43;;;;;;;5.97;5.57;;;18.70;99.90;;;;;;5038723;28;20565;-77
2021/07/17 08:36:09;;;;;;;6.10;5.60;;;18.70;99.90;;;;;;5016256;28;20249;-76
2021/07/17 08:38:34;;;;;;;6.33;5.73;;;18.80;99.90;;;;;;5032587;28;20181;-77
2021/07/17 08:41:01;;;;;;;6.60;6.10;;;18.80;99.90;;;;;;5033137;28;20179;-76
2021/07/17 08:43:26;;;;;;;5.73;5.33;;;18.90;99.90;;;;;;5030046;28;20656;-76
2021/07/17 08:45:52;;;;;;;5.67;5.20;;;19.00;99.90;;;;;;5037243;28;20182;-77
2021/07/17 08:48:20;;;;;;;5.70;5.30;;;19.10;99.90;;;;;;5037996;28;20585;-76
2021/07/17 08:50:46;;;;;;;5.20;4.80;;;19.30;99.90;;;;;;5020103;28;20231;-76
2021/07/17 08:53:15;;;;;;;5.40;5.00;;;19.40;99.90;;;;;;5037729;28;20292;-77
2021/07/17 08:55:41;;;;;;;5.57;5.17;;;19.60;99.90;;;;;;5037125;28;20260;-77
2021/07/17 08:58:07;;;;;;;5.50;5.10;;;19.70;99.90;;;;;;5037659;28;20560;-77
2021/07/17 09:00:34;;;;;;;5.90;5.30;;;;;;;;;;5037791;28;20181;-77
2021/07/17 09:03:07;;;;;;;6.17;5.67;;;20.00;99.90;;;;;;5020264;28;20190;-76
2021/07/17 09:05:36;;;;;;;5.50;5.10;;;20.00;99.90;;;;;;5037000;28;20188;-77
2021/07/17 09:08:02;;;;;;;5.07;4.67;;;20.00;99.90;;;;;;5019437;28;20209;-77
2021/07/17 09:10:46;;;;;;;4.90;4.60;;;20.00;99.90;;;;;;5021109;28;20178;-77
2021/07/17 09:13:32;;;;;;;5.23;4.83;;;20.00;99.90;;;;;;5020375;28;20206;-77
2021/07/17 09:16:06;;;;;;;5.30;4.87;;;20.00;99.90;;;;;;5038607;28;20175;-77
2021/07/17 09:18:47;;;;;;;5.07;4.67;;;20.00;99.90;;;;;;5040486;28;20667;-77
2021/07/17 09:21:21;;;;;;;5.60;5.03;;;20.10;99.90;;;;;;5039721;28;20265;-76
2021/07/17 09:23:59;;;;;;;5.50;5.10;;;20.00;99.90;;;;;;5037061;28;20260;-77
2021/07/17 09:26:37;;;;;;;5.50;5.00;;;20.10;99.90;;;;;;5038619;28;20220;-77
2021/07/17 09:29:08;;;;;;;5.40;5.00;;;20.10;99.90;;;;;;5021547;28;20175;-77
2021/07/17 09:31:49;;;;;;;5.70;5.30;;;20.10;99.90;;;;;;5039150;28;20609;-77
2021/07/17 09:34:17;;;;;;;5.30;4.90;;;20.10;99.90;;;;;;5020746;28;20184;-77
2021/07/17 09:36:57;;;;;;;5.77;5.37;;;20.20;99.90;;;;;;5005258;28;20263;-77
2021/07/17 09:39:33;;;;;;;6.03;5.53;;;20.30;99.90;;;;;;5040153;28;20182;-77
2021/07/17 09:42:11;;;;;;;5.97;5.53;;;20.40;99.90;;;;;;5018859;28;20312;-77
2021/07/17 09:44:37;;;;;;;6.03;5.47;;;20.40;99.90;;;;;;5017789;28;20182;-77
2021/07/17 09:47:23;;;;;;;5.67;5.17;;;20.60;99.90;;;;;;5036122;28;20194;-78
2021/07/17 09:49:50;;;;;;;4.93;4.57;;;20.70;99.90;;;;;;5018243;28;20228;-77
2021/07/17 09:52:20;;;;;;;4.90;4.50;;;20.70;99.90;;;;;;5033738;28;20238;-77
2021/07/17 09:55:07;;;;;;;5.53;5.10;;;20.70;99.90;;;;;;5019554;28;20199;-79
2021/07/17 09:57:34;;;;;;;5.93;5.53;;;20.80;99.90;;;;;;5026097;28;20214;-78
2021/07/17 10:00:17;;;;;;;4.70;4.40;;;20.70;99.90;;;;;;5041236;28;20170;-79
2021/07/17 10:02:43;;;;;;;5.27;4.87;;;20.80;99.90;;;;;;5041556;28;20185;-78
2021/07/17 10:05:13;;;;;;;5.53;5.13;;;20.90;99.90;;;;;;5040321;28;20608;-79
2021/07/17 10:07:38;;;;;;;5.50;5.00;;;20.90;99.90;;;;;;5034526;28;20206;-79
2021/07/17 10:10:05;;;;;;;6.03;4.97;;;20.80;99.90;;;;;;5039763;28;20553;-78
2021/07/17 10:12:33;;;;;;;5.80;5.30;;;20.80;99.90;;;;;;5022238;28;20677;-78
2021/07/17 10:15:00;;;;;;;5.20;4.80;;;20.70;99.90;;;;;;5039172;28;20194;-79
2021/07/17 10:17:39;;;;;;;4.83;4.43;;;20.70;99.90;;;;;;5032130;28;20202;-76
2021/07/17 10:20:11;;;;;;;5.20;4.70;;;20.70;99.90;;;;;;5034616;28;20200;-75
2021/07/17 10:22:38;;;;;;;5.73;5.33;;;20.60;99.90;;;;;;5035170;28;20197;-75
2021/07/17 10:25:09;;;;;;;5.30;4.90;;;20.70;99.90;;;;;;5035236;28;20534;-74
2021/07/17 10:27:35;;;;;;;4.90;4.60;;;20.60;99.90;;;;;;5036490;28;20202;-75
2021/07/17 10:30:06;;;;;;;4.73;4.40;;;20.60;99.90;;;;;;5034075;28;20189;-75
2021/07/17 10:32:32;;;;;;;5.17;4.83;;;20.70;99.90;;;;;;5016285;28;20210;-74
2021/07/17 10:34:58;;;;;;;5.07;4.57;;;20.80;99.90;;;;;;5017634;28;20204;-75
2021/07/17 10:37:31;;;;;;;7.80;5.03;;;21.10;99.90;;;;;;5018142;28;20204;-75
2021/07/17 10:40:08;;;;;;;5.17;4.67;;;21.20;99.90;;;;;;5019412;28;20193;-75
2021/07/17 10:42:35;;;;;;;5.60;5.10;;;21.20;99.90;;;;;;5034586;28;20548;-75
2021/07/17 10:45:01;;;;;;;5.43;4.93;;;21.30;99.90;;;;;;5037688;28;20248;-75
2021/07/17 10:47:38;;;;;;;4.70;4.40;;;21.20;99.90;;;;;;5034860;28;20608;-75
2021/07/17 10:50:06;;;;;;;7.07;5.37;;;21.20;99.90;;;;;;5016816;28;20273;-76
2021/07/17 10:52:39;;;;;;;5.50;5.00;;;21.20;99.90;;;;;;5033462;28;20210;-76
2021/07/17 10:55:30;;;;;;;5.10;4.80;;;21.20;99.90;;;;;;5034361;28;20261;-75
2021/07/17 10:58:02;;;;;;;5.57;5.17;;;21.20;99.90;;;;;;5035083;28;20222;-76
2021/07/17 11:00:43;;;;;;;5.13;4.63;;;21.30;99.90;;;;;;5017776;28;20193;-75
2021/07/17 11:03:20;;;;;;;5.77;5.27;;;21.40;99.90;;;;;;5017240;28;20558;-75
2021/07/17 11:05:47;;;;;;;5.10;4.80;;;21.40;99.90;;;;;;5032885;28;20553;-76
2021/07/17 11:08:34;;;;;;;5.50;5.10;;;21.40;99.90;;;;;;5033654;28;20218;-76
2021/07/17 11:11:01;;;;;;;4.60;4.30;;;21.50;99.90;;;;;;5030194;28;20691;-75
2021/07/17 11:13:34;;;;;;;5.00;4.60;;;21.60;99.90;;;;;;5014557;28;20183;-76
2021/07/17 11:16:01;;;;;;;5.67;5.17;;;21.70;99.90;;;;;;5029803;28;20705;-76
2021/07/17 11:18:32;;;;;;;6.00;5.50;;;21.80;99.90;;;;;;5032346;28;20178;-76
2021/07/17 11:20:58;;;;;;;5.80;5.27;;;21.80;99.90;;;;;;5032361;28;20183;-77
2021/07/17 11:23:35;;;;;;;5.67;5.27;;;21.90;99.90;;;;;;5016910;28;20190;-75
2021/07/17 11:26:09;;;;;;;5.50;5.10;;;21.90;99.90;;;;;;5013703;28;20696;-75
2021/07/17 11:28:44;;;;;;;5.43;5.03;;;21.80;99.90;;;;;;5016139;28;20209;-76
2021/07/17 11:31:31;;;;;;;5.20;4.80;;;21.90;99.90;;;;;;5010654;28;20209;-76
2021/07/17 11:34:09;;;;;;;5.50;5.10;;;21.90;99.90;;;;;;5009326;28;20174;-75
2021/07/17 11:36:37;;;;;;;5.40;5.00;;;21.90;99.90;;;;;;5034198;28;20204;-77
2021/07/17 11:39:05;;;;;;;6.67;5.57;;;21.90;99.90;;;;;;5015687;28;20313;-74
2021/07/17 11:41:30;;;;;;;5.63;5.23;;;22.00;99.90;;;;;;5035997;28;20186;-74
2021/07/17 11:43:56;;;;;;;6.10;5.60;;;22.40;99.90;;;;;;5036144;28;20174;-74
2021/07/17 11:46:22;;;;;;;6.10;5.60;;;22.40;99.90;;;;;;5035495;28;20553;-74
2021/07/17 11:49:10;;;;;;;6.47;5.07;;;22.50;99.90;;;;;;5032645;28;20189;-77
2021/07/17 11:51:51;;;;;;;5.30;4.90;;;22.40;99.90;;;;;;5015524;28;20202;-75
2021/07/17 11:54:28;;;;;;;6.63;6.13;;;22.30;99.90;;;;;;5033501;28;20254;-74
2021/07/17 11:57:24;;;;;;;5.63;5.13;;;22.40;99.90;;;;;;5032951;28;20206;-74
2021/07/17 11:59:59;;;;;;;5.77;5.17;;;22.30;99.90;;;;;;5003561;28;20195;-74
2021/07/17 12:02:27;;;;;;;7.93;6.03;;;22.20;99.90;;;;;;5032892;28;20174;-77
2021/07/17 12:04:59;;;;;;;5.87;5.27;;;22.40;99.90;;;;;;5031436;28;20193;-77
2021/07/17 12:07:31;;;;;;;5.80;5.40;;;22.40;99.90;;;;;;5031968;28;20409;-76
2021/07/17 12:10:08;;;;;;;6.37;5.77;;;22.20;99.90;;;;;;5032113;28;20182;-76
2021/07/17 12:12:46;;;;;;;12.53;6.77;;;22.20;99.90;;;;;;5031769;28;20218;-76
2021/07/17 12:15:17;;;;;;;5.83;5.43;;;22.20;99.90;;;;;;5032332;28;20178;-77
2021/07/17 12:17:49;;;;;;;6.37;5.77;;;22.20;99.90;;;;;;5032855;28;20532;-77
2021/07/17 12:20:16;;;;;;;5.80;5.30;;;22.20;99.90;;;;;;5032385;28;20213;-77
2021/07/17 12:23:03;;;;;;;5.87;5.47;;;22.20;99.90;;;;;;5033690;28;20204;-78
2021/07/17 12:25:31;;;;;;;280.93;28.20;;;22.20;99.90;;;;;;5035802;28;20235;-77
2021/07/17 12:28:02;;;;;;;40.83;8.13;;;22.30;99.90;;;;;;5034852;28;20247;-76
2021/07/17 12:30:34;;;;;;;5.30;4.87;;;22.40;99.90;;;;;;5017829;28;20190;-77
2021/07/17 12:33:31;;;;;;;5.37;4.93;;;22.40;99.90;;;;;;5035955;28;20205;-77
2021/07/17 12:36:17;;;;;;;7.70;5.50;;;22.40;99.90;;;;;;5011897;28;20554;-77
2021/07/17 12:38:44;;;;;;;5.13;4.63;;;22.60;99.90;;;;;;5036504;28;20171;-77
2021/07/17 12:41:20;;;;;;;5.27;4.77;;;22.60;99.90;;;;;;5033244;28;20182;-78
2021/07/17 12:43:51;;;;;;;5.90;5.40;;;22.40;99.90;;;;;;5038012;28;20178;-77
2021/07/17 12:46:25;;;;;;;5.30;4.90;;;22.40;99.90;;;;;;5035823;28;20591;-77
2021/07/17 12:48:55;;;;;;;5.10;4.70;;;22.30;99.90;;;;;;5036038;28;20186;-77